createdAt,value
2019-02-15T00:00:05.993Z,15.10
2019-02-15T00:02:38.932Z,13.50
2019-02-15T00:05:10.141Z,15.33
2019-02-15T00:07:41.405Z,15.97
2019-02-15T00:10:12.609Z,17.80
2019-02-15T00:12:43.806Z,17.87
2019-02-15T00:15:15.055Z,18.57
2019-02-15T00:18:11.221Z,14.53
2019-02-15T00:21:10.742Z,15.83
2019-02-15T00:23:42.382Z,16.00
2019-02-15T00:26:13.617Z,17.50
2019-02-15T00:28:44.841Z,17.30
2019-02-15T00:31:19.019Z,15.43
2019-02-15T00:33:50.213Z,16.93
2019-02-15T00:36:21.405Z,16.77
2019-02-15T00:38:52.596Z,14.67
2019-02-15T00:41:23.902Z,19.17
2019-02-15T00:43:55.088Z,16.60
2019-02-15T00:46:57.427Z,17.17
2019-02-15T00:49:43.711Z,19.60
2019-02-15T00:52:23.811Z,15.63
2019-02-15T00:55:17.351Z,19.30
2019-02-15T00:58:06.141Z,16.27
2019-02-15T01:01:08.514Z,13.27
2019-02-15T01:04:00.433Z,13.37
2019-02-15T01:06:59.689Z,13.20
2019-02-15T01:09:47.865Z,15.97
2019-02-15T01:12:25.183Z,16.77
2019-02-15T01:14:56.501Z,14.80
2019-02-15T01:17:27.870Z,15.63
2019-02-15T01:19:59.061Z,18.10
2019-02-15T01:22:30.262Z,16.50
2019-02-15T01:25:01.615Z,12.60
2019-02-15T01:27:43.622Z,14.53
2019-02-15T01:30:30.656Z,12.93
2019-02-15T01:33:36.050Z,13.23
2019-02-15T01:36:29.194Z,14.80
2019-02-15T01:39:34.767Z,12.77
2019-02-15T01:42:20.796Z,15.07
2019-02-15T01:45:10.938Z,16.30
2019-02-15T01:47:45.720Z,14.63
2019-02-15T01:50:16.949Z,14.90
2019-02-15T01:52:48.230Z,16.07
2019-02-15T01:55:19.490Z,14.37
2019-02-15T01:57:50.694Z,15.07
2019-02-15T02:00:24.001Z,14.87
2019-02-15T02:02:55.298Z,14.40
2019-02-15T02:05:26.594Z,15.97
2019-02-15T02:07:57.867Z,16.47
2019-02-15T02:10:29.078Z,16.87
2019-02-15T02:13:01.506Z,16.00
2019-02-15T02:15:32.746Z,16.57
2019-02-15T02:18:03.950Z,15.40
2019-02-15T02:20:35.164Z,15.73
2019-02-15T02:23:06.353Z,14.47
2019-02-15T02:25:37.532Z,15.53
2019-02-15T02:28:08.792Z,14.73
2019-02-15T02:30:40.321Z,17.40
2019-02-15T02:33:12.987Z,15.10
2019-02-15T02:35:44.643Z,18.50
2019-02-15T02:38:15.940Z,17.73
2019-02-15T02:40:47.122Z,19.00
2019-02-15T02:43:18.467Z,17.27
2019-02-15T02:45:49.758Z,17.83
2019-02-15T02:48:20.937Z,20.30
2019-02-15T02:50:52.175Z,20.53
2019-02-15T02:53:24.575Z,20.93
2019-02-15T02:55:55.768Z,20.87
2019-02-15T02:58:28.736Z,18.53
2019-02-15T03:01:00.026Z,20.63
2019-02-15T03:03:31.521Z,18.47
2019-02-15T03:06:02.701Z,18.63
2019-02-15T03:08:33.907Z,18.70
2019-02-15T03:11:05.081Z,19.67
2019-02-15T03:13:36.270Z,16.83
2019-02-15T03:16:07.441Z,20.40
2019-02-15T03:18:38.694Z,20.87
2019-02-15T03:21:09.876Z,21.23
2019-02-15T03:23:41.113Z,19.60
2019-02-15T03:26:12.357Z,18.93
2019-02-15T03:28:43.827Z,19.80
2019-02-15T03:31:15.126Z,20.20
2019-02-15T03:33:46.374Z,20.97
2019-02-15T03:36:27.306Z,18.53
2019-02-15T03:39:04.326Z,18.73
2019-02-15T03:41:35.893Z,18.23
2019-02-15T03:44:07.067Z,19.03
2019-02-15T03:46:38.239Z,17.30
2019-02-15T03:49:09.429Z,19.73
2019-02-15T03:51:40.625Z,21.80
2019-02-15T03:54:11.946Z,19.17
2019-02-15T03:56:50.118Z,19.27
2019-02-15T03:59:21.429Z,18.43
2019-02-15T04:01:52.599Z,16.17
2019-02-15T04:04:23.842Z,16.60
2019-02-15T04:06:55.121Z,18.17
2019-02-15T04:09:26.635Z,16.43
2019-02-15T04:11:57.981Z,18.73
2019-02-15T04:14:32.851Z,20.13
2019-02-15T04:17:03.217Z,17.43
2019-02-15T04:19:34.396Z,16.93
2019-02-15T04:22:05.592Z,18.87
2019-02-15T04:24:36.796Z,15.63
2019-02-15T04:27:07.909Z,18.23
2019-02-15T04:29:39.179Z,19.87
2019-02-15T04:32:10.356Z,21.97
2019-02-15T04:34:41.557Z,18.43
2019-02-15T04:37:12.786Z,20.50
2019-02-15T04:39:45.156Z,20.10
2019-02-15T04:42:16.345Z,19.03
2019-02-15T04:44:48.619Z,18.83
2019-02-15T04:47:19.863Z,20.00
2019-02-15T04:49:52.173Z,18.73
2019-02-15T04:52:23.403Z,19.30
2019-02-15T04:54:54.726Z,20.63
2019-02-15T04:57:25.958Z,18.33
2019-02-15T04:59:57.165Z,19.07
2019-02-15T05:02:28.378Z,21.87
2019-02-15T05:04:59.602Z,19.37
2019-02-15T05:07:30.999Z,18.20
2019-02-15T05:10:02.293Z,85.63
2019-02-15T05:12:33.566Z,71.33
2019-02-15T05:15:05.049Z,27.03
2019-02-15T05:17:36.227Z,24.03
2019-02-15T05:20:07.658Z,22.93
2019-02-15T05:22:38.973Z,22.07
2019-02-15T05:25:10.192Z,22.37
2019-02-15T05:27:41.428Z,20.70
2019-02-15T05:30:12.608Z,19.27
2019-02-15T05:32:43.837Z,20.43
2019-02-15T05:35:15.086Z,21.37
2019-02-15T05:37:46.338Z,22.27
2019-02-15T05:40:17.564Z,20.13
2019-02-15T05:42:48.805Z,19.70
2019-02-15T05:45:20.024Z,18.77
2019-02-15T05:47:51.187Z,16.77
2019-02-15T05:50:22.452Z,19.47
2019-02-15T05:52:53.641Z,18.23
2019-02-15T05:55:24.837Z,20.17
2019-02-15T05:57:56.154Z,19.07
2019-02-15T06:00:36.812Z,21.13
2019-02-15T06:03:00.353Z,16.43
2019-02-15T06:05:31.497Z,20.70
2019-02-15T06:08:02.781Z,18.47
2019-02-15T06:10:34.104Z,17.77
2019-02-15T06:13:05.360Z,25.20
2019-02-15T06:15:36.593Z,20.30
2019-02-15T06:18:07.831Z,17.60
2019-02-15T06:20:39.041Z,23.23
2019-02-15T06:23:10.217Z,22.80
2019-02-15T06:25:41.416Z,19.97
2019-02-15T06:28:12.601Z,20.93
2019-02-15T06:30:43.957Z,20.63
2019-02-15T06:33:15.195Z,21.00
2019-02-15T06:35:46.378Z,20.10
2019-02-15T06:38:17.639Z,23.83
2019-02-15T06:40:48.872Z,23.37
2019-02-15T06:43:20.108Z,21.67
2019-02-15T06:45:51.262Z,19.57
2019-02-15T06:48:23.581Z,18.93
2019-02-15T06:50:54.776Z,24.17
2019-02-15T06:53:26.089Z,22.13
2019-02-15T06:55:57.324Z,21.20
2019-02-15T06:58:28.710Z,23.37
2019-02-15T07:01:13.937Z,23.20
2019-02-15T07:04:00.409Z,22.03
2019-02-15T07:06:32.570Z,21.17
2019-02-15T07:09:04.726Z,19.57
2019-02-15T07:11:36.128Z,19.37
2019-02-15T07:14:07.337Z,21.13
2019-02-15T07:16:38.534Z,23.57
2019-02-15T07:19:09.740Z,24.67
2019-02-15T07:21:40.998Z,21.97
2019-02-15T07:24:12.243Z,22.03
2019-02-15T07:26:43.534Z,23.00
2019-02-15T07:29:14.800Z,23.47
2019-02-15T07:31:46.098Z,25.00
2019-02-15T07:34:17.303Z,23.37
2019-02-15T07:36:48.654Z,24.30
2019-02-15T07:39:19.920Z,27.70
2019-02-15T07:41:51.171Z,23.80
2019-02-15T07:44:22.600Z,23.43
2019-02-15T07:46:53.855Z,22.57
2019-02-15T07:49:27.168Z,25.60
2019-02-15T07:51:58.058Z,23.47
2019-02-15T07:54:29.350Z,23.70
2019-02-15T07:57:00.668Z,26.00
2019-02-15T07:59:31.864Z,22.27
2019-02-15T08:02:03.098Z,23.40
2019-02-15T08:04:34.295Z,26.60
2019-02-15T08:07:05.657Z,23.37
2019-02-15T08:09:36.996Z,24.53
2019-02-15T08:12:08.180Z,28.83
2019-02-15T08:14:39.430Z,25.87
2019-02-15T08:17:10.658Z,23.23
2019-02-15T08:19:41.971Z,23.93
2019-02-15T08:22:13.373Z,26.07
2019-02-15T08:24:44.638Z,28.83
2019-02-15T08:27:15.923Z,23.30
2019-02-15T08:29:47.225Z,25.83
2019-02-15T08:32:18.467Z,28.37
2019-02-15T08:34:49.691Z,24.40
2019-02-15T08:37:20.892Z,20.57
2019-02-15T08:39:52.059Z,23.60
2019-02-15T08:42:23.319Z,21.40
2019-02-15T08:44:54.542Z,22.30
2019-02-15T08:47:25.802Z,20.63
2019-02-15T08:49:57.029Z,22.13
2019-02-15T08:52:28.338Z,21.60
2019-02-15T08:54:59.515Z,22.67
2019-02-15T08:57:30.678Z,22.00
2019-02-15T09:00:03.049Z,20.97
2019-02-15T09:02:35.445Z,21.63
2019-02-15T09:05:08.096Z,20.40
2019-02-15T09:07:39.286Z,24.63
2019-02-15T09:10:11.474Z,21.33
2019-02-15T09:12:42.748Z,20.63
2019-02-15T09:15:19.009Z,20.57
2019-02-15T09:17:53.999Z,22.17
2019-02-15T09:20:25.331Z,21.73
2019-02-15T09:22:56.609Z,20.97
2019-02-15T09:25:27.833Z,22.60
2019-02-15T09:28:18.422Z,19.73
2019-02-15T09:30:52.955Z,21.30
2019-02-15T09:33:24.153Z,22.33
2019-02-15T09:35:55.512Z,20.97
2019-02-15T09:38:26.797Z,23.00
2019-02-15T09:40:58.040Z,19.47
2019-02-15T09:43:29.786Z,19.40
2019-02-15T09:46:01.021Z,19.13
2019-02-15T09:48:32.401Z,21.00
2019-02-15T09:51:03.620Z,19.97
2019-02-15T09:53:34.867Z,19.67
2019-02-15T09:56:07.239Z,19.13
2019-02-15T09:58:38.491Z,19.87
2019-02-15T10:01:09.726Z,18.80
2019-02-15T10:03:40.961Z,19.17
2019-02-15T10:06:12.201Z,20.33
2019-02-15T10:08:43.404Z,21.83
2019-02-15T10:11:14.625Z,19.20
2019-02-15T10:13:45.795Z,20.00
2019-02-15T10:16:16.951Z,18.60
2019-02-15T10:18:48.147Z,18.50
2019-02-15T10:21:19.282Z,18.43
2019-02-15T10:23:50.585Z,21.77
2019-02-15T10:26:21.786Z,17.50
2019-02-15T10:28:53.098Z,18.90
2019-02-15T10:31:24.278Z,18.30
2019-02-15T10:33:55.490Z,18.67
2019-02-15T10:36:26.694Z,18.40
2019-02-15T10:38:57.992Z,17.83
2019-02-15T10:41:29.305Z,16.23
2019-02-15T10:44:00.506Z,16.43
2019-02-15T10:46:37.676Z,17.33
2019-02-15T10:49:04.741Z,14.53
2019-02-15T10:51:35.926Z,17.27
2019-02-15T10:54:07.120Z,16.13
2019-02-15T10:56:38.293Z,18.87
2019-02-15T10:59:11.184Z,16.23
2019-02-15T11:01:42.539Z,15.50
2019-02-15T11:04:13.846Z,76.30
2019-02-15T11:06:45.075Z,36.77
2019-02-15T11:09:16.322Z,18.73
2019-02-15T11:11:47.587Z,16.23
2019-02-15T11:14:18.813Z,15.73
2019-02-15T11:16:50.081Z,17.57
2019-02-15T11:19:21.330Z,13.93
2019-02-15T11:21:52.506Z,15.70
2019-02-15T11:24:23.722Z,14.17
2019-02-15T11:26:54.903Z,12.93
2019-02-15T11:29:26.128Z,14.13
2019-02-15T11:31:57.317Z,14.27
2019-02-15T11:34:28.552Z,13.58
2019-02-15T11:36:59.731Z,12.53
2019-02-15T11:39:30.929Z,14.73
2019-02-15T11:42:02.338Z,12.43
2019-02-15T11:44:33.506Z,15.00
2019-02-15T11:47:04.826Z,15.03
2019-02-15T11:49:36.090Z,11.83
2019-02-15T11:52:07.299Z,13.40
2019-02-15T11:54:38.540Z,11.87
2019-02-15T11:57:09.801Z,13.80
2019-02-15T11:59:41.056Z,18.80
2019-02-15T12:02:12.358Z,12.87
2019-02-15T12:04:43.541Z,10.47
2019-02-15T12:07:14.764Z,11.43
2019-02-15T12:09:45.991Z,14.03
2019-02-15T12:12:17.115Z,10.25
2019-02-15T12:14:48.353Z,10.70
2019-02-15T12:17:19.555Z,12.23
2019-02-15T12:19:51.841Z,11.25
2019-02-15T12:22:23.036Z,8.80
2019-02-15T12:24:54.214Z,9.78
2019-02-15T12:27:25.466Z,8.03
2019-02-15T12:29:56.667Z,7.12
2019-02-15T12:32:27.904Z,8.15
2019-02-15T12:34:59.060Z,8.55
2019-02-15T12:37:30.286Z,7.20
2019-02-15T12:40:01.552Z,8.38
2019-02-15T12:42:32.670Z,7.78
2019-02-15T12:45:03.926Z,6.78
2019-02-15T12:47:35.170Z,7.83
2019-02-15T12:50:08.408Z,6.25
2019-02-15T12:52:39.539Z,5.70
2019-02-15T12:55:10.765Z,5.87
2019-02-15T12:57:41.906Z,7.28
2019-02-15T13:00:13.983Z,4.72
2019-02-15T13:02:45.259Z,4.80
2019-02-15T13:05:16.436Z,4.87
2019-02-15T13:07:47.684Z,5.95
2019-02-15T13:10:22.565Z,5.75
2019-02-15T13:12:53.825Z,4.97
2019-02-15T13:15:24.986Z,5.75
2019-02-15T13:17:56.196Z,5.62
2019-02-15T13:20:27.431Z,6.00
2019-02-15T13:22:58.669Z,4.95
2019-02-15T13:25:36.580Z,6.08
2019-02-15T13:28:03.034Z,5.85
2019-02-15T13:30:34.308Z,5.35
2019-02-15T13:33:05.499Z,6.20
2019-02-15T13:35:36.671Z,6.70
2019-02-15T13:38:07.932Z,5.65
2019-02-15T13:40:39.141Z,5.75
2019-02-15T13:43:10.311Z,7.20
2019-02-15T13:45:41.514Z,6.62
2019-02-15T13:48:12.690Z,5.87
2019-02-15T13:50:43.900Z,6.28
2019-02-15T13:53:15.074Z,6.15
2019-02-15T13:55:46.306Z,5.67
2019-02-15T13:58:17.493Z,5.28
2019-02-15T14:00:48.728Z,5.95
2019-02-15T14:03:19.909Z,5.60
2019-02-15T14:05:51.190Z,8.05
2019-02-15T14:08:22.401Z,4.58
2019-02-15T14:10:53.584Z,4.35
2019-02-15T14:13:24.764Z,4.60
2019-02-15T14:15:55.956Z,4.30
2019-02-15T14:18:27.155Z,4.25
2019-02-15T14:20:58.398Z,4.30
2019-02-15T14:23:29.659Z,5.00
2019-02-15T14:26:00.839Z,4.58
2019-02-15T14:28:33.165Z,4.95
2019-02-15T14:31:04.365Z,4.65
2019-02-15T14:33:35.577Z,6.20
2019-02-15T14:36:08.274Z,4.40
2019-02-15T14:38:39.649Z,5.17
2019-02-15T14:41:10.821Z,4.33
2019-02-15T14:43:41.981Z,6.62
2019-02-15T14:46:13.178Z,4.65
2019-02-15T14:48:44.345Z,7.25
2019-02-15T14:51:15.570Z,5.03
2019-02-15T14:53:46.840Z,5.50
2019-02-15T14:56:17.976Z,6.08
2019-02-15T14:58:49.241Z,5.42
2019-02-15T15:01:20.429Z,7.55
2019-02-15T15:03:51.756Z,6.62
2019-02-15T15:06:22.924Z,5.72
2019-02-15T15:08:54.109Z,5.85
2019-02-15T15:11:25.301Z,6.58
2019-02-15T15:13:56.470Z,9.65
2019-02-15T15:16:27.642Z,8.18
2019-02-15T15:18:58.794Z,6.75
2019-02-15T15:21:29.997Z,10.60
2019-02-15T15:24:01.315Z,10.10
2019-02-15T15:26:32.469Z,8.33
2019-02-15T15:29:03.724Z,9.78
2019-02-15T15:31:35.048Z,8.03
2019-02-15T15:34:06.228Z,11.40
2019-02-15T15:36:37.472Z,7.95
2019-02-15T15:39:08.714Z,8.38
2019-02-15T15:41:39.967Z,10.30
2019-02-15T15:44:11.401Z,8.80
2019-02-15T15:46:42.550Z,10.23
2019-02-15T15:49:13.881Z,7.90
2019-02-15T15:51:45.158Z,8.73
2019-02-15T15:54:16.647Z,6.78
2019-02-15T15:56:48.921Z,6.72
2019-02-15T15:59:20.760Z,6.53
2019-02-15T16:01:52.064Z,9.90
2019-02-15T16:04:23.691Z,6.50
2019-02-15T16:06:55.181Z,6.50
2019-02-15T16:09:27.300Z,6.00
2019-02-15T16:11:58.919Z,6.35
2019-02-15T16:14:30.196Z,6.95
2019-02-15T16:17:01.526Z,8.98
2019-02-15T16:19:40.461Z,9.20
2019-02-15T16:22:06.808Z,8.43
2019-02-15T16:24:38.015Z,7.33
2019-02-15T16:27:09.305Z,8.08
2019-02-15T16:29:40.528Z,9.50
2019-02-15T16:32:11.747Z,9.58
2019-02-15T16:34:42.866Z,8.08
2019-02-15T16:37:14.181Z,8.83
2019-02-15T16:39:45.320Z,8.18
2019-02-15T16:42:16.549Z,12.23
2019-02-15T16:44:48.040Z,8.08
2019-02-15T16:47:19.417Z,10.93
2019-02-15T16:49:50.770Z,8.55
2019-02-15T16:52:21.947Z,9.68
2019-02-15T16:54:53.285Z,12.58
2019-02-15T16:57:24.462Z,10.28
2019-02-15T16:59:55.741Z,8.43
2019-02-15T17:02:27.298Z,11.35
2019-02-15T17:04:58.571Z,10.13
2019-02-15T17:07:31.070Z,9.93
2019-02-15T17:10:02.523Z,11.18
2019-02-15T17:12:33.746Z,10.45
2019-02-15T17:15:05.252Z,9.80
2019-02-15T17:17:36.617Z,14.43
2019-02-15T17:20:09.259Z,14.93
2019-02-15T17:22:40.522Z,15.85
2019-02-15T17:25:22.029Z,12.85
2019-02-15T17:27:53.257Z,12.98
2019-02-15T17:30:24.540Z,14.35
2019-02-15T17:32:56.003Z,17.35
2019-02-15T17:35:27.273Z,17.30
2019-02-15T17:37:58.646Z,16.70
2019-02-15T17:40:29.851Z,16.40
2019-02-15T17:43:01.396Z,17.12
2019-02-15T17:45:32.563Z,16.77
2019-02-15T17:48:03.735Z,17.07
2019-02-15T17:50:35.988Z,19.98
2019-02-15T17:53:07.176Z,16.73
2019-02-15T17:55:38.539Z,17.35
2019-02-15T17:58:09.859Z,23.33
2019-02-15T18:00:41.199Z,18.57
2019-02-15T18:03:12.432Z,21.20
2019-02-15T18:05:43.678Z,21.10
2019-02-15T18:08:14.902Z,20.77
2019-02-15T18:10:46.187Z,22.62
2019-02-15T18:13:17.498Z,18.23
2019-02-15T18:15:48.709Z,15.75
2019-02-15T18:18:20.032Z,16.80
2019-02-15T18:20:51.221Z,18.92
2019-02-15T18:23:22.474Z,17.65
2019-02-15T18:25:53.922Z,16.37
2019-02-15T18:28:25.208Z,22.20
2019-02-15T18:30:57.549Z,18.82
2019-02-15T18:33:28.982Z,20.27
2019-02-15T18:36:00.359Z,16.25
2019-02-15T18:38:31.663Z,19.60
2019-02-15T18:41:13.355Z,18.65
2019-02-15T18:43:38.588Z,16.47
2019-02-15T18:46:09.936Z,20.83
2019-02-15T18:48:41.260Z,32.93
2019-02-15T18:51:12.513Z,20.95
2019-02-15T18:53:45.051Z,24.75
2019-02-15T18:56:16.626Z,20.48
2019-02-15T18:58:48.124Z,19.77
2019-02-15T19:01:19.335Z,22.25
2019-02-15T19:03:50.642Z,22.07
2019-02-15T19:06:22.002Z,24.80
2019-02-15T19:08:53.287Z,23.20
2019-02-15T19:11:24.671Z,27.80
2019-02-15T19:13:55.967Z,46.98
2019-02-15T19:16:27.231Z,39.87
2019-02-15T19:18:58.485Z,34.80
2019-02-15T19:21:31.471Z,38.40
2019-02-15T19:24:02.934Z,35.60
2019-02-15T19:26:35.405Z,33.43
2019-02-15T19:29:06.666Z,27.60
2019-02-15T19:31:38.006Z,38.65
2019-02-15T19:34:10.301Z,31.07
2019-02-15T19:36:41.603Z,30.00
2019-02-15T19:39:12.840Z,29.60
2019-02-15T19:41:44.163Z,27.40
2019-02-15T19:44:15.394Z,28.40
2019-02-15T19:46:59.494Z,27.97
2019-02-15T19:49:38.490Z,29.67
2019-02-15T19:52:03.996Z,25.53
2019-02-15T19:54:35.299Z,28.23
2019-02-15T19:57:06.624Z,24.93
2019-02-15T19:59:38.893Z,27.43
2019-02-15T20:02:10.398Z,153.73
2019-02-15T20:04:41.597Z,44.30
2019-02-15T20:07:12.956Z,29.83
2019-02-15T20:09:44.306Z,28.67
2019-02-15T20:12:15.575Z,28.17
2019-02-15T20:14:46.823Z,26.27
2019-02-15T20:17:17.990Z,22.70
2019-02-15T20:19:51.028Z,27.53
2019-02-15T20:22:22.701Z,26.27
2019-02-15T20:24:54.111Z,25.43
2019-02-15T20:27:25.586Z,26.70
2019-02-15T20:29:56.807Z,32.77
2019-02-15T20:32:28.132Z,29.90
2019-02-15T20:34:59.484Z,26.63
2019-02-15T20:37:30.790Z,25.63
2019-02-15T20:40:02.131Z,24.47
2019-02-15T20:42:33.620Z,25.07
2019-02-15T20:45:05.366Z,21.73
2019-02-15T20:47:36.730Z,22.07
2019-02-15T20:50:08.748Z,21.93
2019-02-15T20:52:41.227Z,23.27
2019-02-15T20:55:13.522Z,22.50
2019-02-15T20:57:46.130Z,21.17
2019-02-15T21:00:19.689Z,26.63
2019-02-15T21:02:50.871Z,24.40
2019-02-15T21:05:22.035Z,22.17
2019-02-15T21:07:53.200Z,21.50
2019-02-15T21:10:24.558Z,18.93
2019-02-15T21:12:55.864Z,21.80
2019-02-15T21:15:27.502Z,25.50
2019-02-15T21:17:59.946Z,28.30
2019-02-15T21:20:32.078Z,26.73
2019-02-15T21:23:03.446Z,32.63
2019-02-15T21:25:34.715Z,43.37
2019-02-15T21:28:06.204Z,38.53
2019-02-15T21:30:37.495Z,42.23
2019-02-15T21:33:09.144Z,48.20
2019-02-15T21:35:40.438Z,43.50
2019-02-15T21:38:11.701Z,38.13
2019-02-15T21:40:43.062Z,36.97
2019-02-15T21:43:15.782Z,31.57
2019-02-15T21:45:48.074Z,28.27
2019-02-15T21:48:19.358Z,26.40
2019-02-15T21:50:50.664Z,24.27
2019-02-15T21:53:21.944Z,23.50
2019-02-15T21:55:53.568Z,25.60
2019-02-15T21:58:25.063Z,23.47
2019-02-15T22:00:56.534Z,20.67
2019-02-15T22:03:27.999Z,23.83
2019-02-15T22:05:59.371Z,23.10
2019-02-15T22:08:30.620Z,18.77
2019-02-15T22:11:01.863Z,20.90
2019-02-15T22:13:34.880Z,21.40
2019-02-15T22:16:06.302Z,20.37
2019-02-15T22:18:37.638Z,21.07
2019-02-15T22:21:08.876Z,18.37
2019-02-15T22:23:40.027Z,20.57
2019-02-15T22:26:11.271Z,21.07
2019-02-15T22:28:42.457Z,20.90
2019-02-15T22:31:13.655Z,21.63
2019-02-15T22:33:44.882Z,22.40
2019-02-15T22:36:16.040Z,19.63
2019-02-15T22:38:47.283Z,17.87
2019-02-15T22:41:18.793Z,23.07
2019-02-15T22:43:50.004Z,22.27
2019-02-15T22:46:21.237Z,20.67
2019-02-15T22:48:52.483Z,18.30
2019-02-15T22:51:23.708Z,22.63
2019-02-15T22:53:54.930Z,20.00
2019-02-15T22:56:26.254Z,22.97
2019-02-15T22:58:57.485Z,19.30
2019-02-15T23:01:28.941Z,20.30
2019-02-15T23:04:00.108Z,19.40
2019-02-15T23:06:31.611Z,16.40
2019-02-15T23:09:04.470Z,20.07
2019-02-15T23:11:36.883Z,18.50
2019-02-15T23:14:08.007Z,20.37
2019-02-15T23:16:39.222Z,19.03
2019-02-15T23:19:10.514Z,20.60
2019-02-15T23:21:41.724Z,25.00
2019-02-15T23:24:12.950Z,21.23
2019-02-15T23:26:44.360Z,19.10
2019-02-15T23:29:15.584Z,20.43
2019-02-15T23:31:47.054Z,17.47
2019-02-15T23:34:18.269Z,18.63
2019-02-15T23:36:49.503Z,18.87
2019-02-15T23:39:20.680Z,20.60
2019-02-15T23:41:51.880Z,19.63
2019-02-15T23:44:23.006Z,18.17
2019-02-15T23:46:54.279Z,18.67
2019-02-15T23:49:25.440Z,19.33
2019-02-15T23:51:56.620Z,19.00
2019-02-15T23:54:27.817Z,22.67
2019-02-15T23:56:59.127Z,19.23
2019-02-15T23:59:30.478Z,22.43
